CheckWX is a tool to help pilots better visualize weather data.  It is not intended as a substitute for an official pre-flight weather briefing.

16:03:15 UTC

CYMM TAF
Fort McMurray Airport
Fort McMurray, Canada
TAF CYMM 181238Z 1813/1901 24008KT P6SM SKC RMK FCST BASED ON AUTO OBS. NXT FCST BY 181900Z

Mar-18@
13:00 UTC

Mar-18 @ 13:00 UTC

Mar-19@
01:00 UTC

Mar-19 @ 01:00 UTC

TAF CYMM 181238Z 1813/1901 24008KT P6SM SKC RMK FCST BASED ON AUTO OBS. NXT FCST BY 181900Z
Wind
  • 240° at 8 KTS
Cloud Levels
  • Clear skies